KELY

Ely Arpt / Yelland Field / Airport

Ely, Nevada, USA
METAR KELY 241453Z AUTO 01011KT 10SM CLR 15/01 A3021 RMK AO2 SLP128 T01500006 51013
Observed Flight Rules
Jun-24 @ 14:53 UTC (12 minutes ago) Visual Flight Rules
Wind Visibility Clouds
10° at 11 knots 10 miles
  • Clear skies
Temperatures Readings
Current 15°C / 59°F
Dewpoint 1°C / 34°F
Humidity 39%
Altimeter 30.21" Hg
Pressure 1012.8 hPa
Elevation 1906
METAR KELY 241453Z AUTO 01011KT 10SM CLR 15/01 A3021 RMK AO2 SLP128 T01500006 51013
Observed Flight Rules
Jun-24 @ 14:53 UTC
(12 minutes ago)
VFR
Wind Visibility
10° at 11 knots 10 miles
Clouds
  • Clear skies
Temperature Dewpoint
15°C / 59°F 1°C / 34°F
Humidity Altimeter Pressure
39% 30.21" Hg 1012.8 hPa